sensor_id;sensor_type;location;lat;lon;timestamp;P1;durP1;ratioP1;P2;durP2;ratioP2
22924;SDS011;11628;51.072;3.712;2023-04-03T00:01:00;7.30;;;4.40;;
22924;SDS011;11628;51.072;3.712;2023-04-03T00:03:26;7.15;;;4.93;;
22924;SDS011;11628;51.072;3.712;2023-04-03T00:05:52;7.85;;;4.78;;
22924;SDS011;11628;51.072;3.712;2023-04-03T00:08:17;6.38;;;4.45;;
22924;SDS011;11628;51.072;3.712;2023-04-03T00:10:44;7.00;;;4.30;;
22924;SDS011;11628;51.072;3.712;2023-04-03T00:13:10;9.15;;;5.10;;
22924;SDS011;11628;51.072;3.712;2023-04-03T00:15:36;6.50;;;4.28;;
22924;SDS011;11628;51.072;3.712;2023-04-03T00:18:03;9.07;;;4.70;;
22924;SDS011;11628;51.072;3.712;2023-04-03T00:20:29;7.38;;;4.63;;
22924;SDS011;11628;51.072;3.712;2023-04-03T00:22:55;8.32;;;5.30;;
22924;SDS011;11628;51.072;3.712;2023-04-03T00:25:21;5.75;;;4.22;;
22924;SDS011;11628;51.072;3.712;2023-04-03T00:27:47;8.52;;;6.57;;
22924;SDS011;11628;51.072;3.712;2023-04-03T00:30:13;8.88;;;5.28;;
22924;SDS011;11628;51.072;3.712;2023-04-03T00:32:41;7.65;;;5.50;;
22924;SDS011;11628;51.072;3.712;2023-04-03T00:35:06;8.13;;;4.97;;
22924;SDS011;11628;51.072;3.712;2023-04-03T00:37:32;8.32;;;5.60;;
22924;SDS011;11628;51.072;3.712;2023-04-03T00:39:58;7.60;;;5.30;;
22924;SDS011;11628;51.072;3.712;2023-04-03T00:42:24;7.82;;;5.20;;
22924;SDS011;11628;51.072;3.712;2023-04-03T00:47:22;7.15;;;5.28;;
22924;SDS011;11628;51.072;3.712;2023-04-03T00:49:49;6.68;;;5.38;;
22924;SDS011;11628;51.072;3.712;2023-04-03T00:52:17;7.95;;;5.60;;
22924;SDS011;11628;51.072;3.712;2023-04-03T00:54:48;7.30;;;5.50;;
22924;SDS011;11628;51.072;3.712;2023-04-03T00:57:15;8.02;;;5.70;;
22924;SDS011;11628;51.072;3.712;2023-04-03T00:59:43;7.15;;;6.03;;
22924;SDS011;11628;51.072;3.712;2023-04-03T01:02:13;11.35;;;5.97;;
22924;SDS011;11628;51.072;3.712;2023-04-03T01:04:40;9.18;;;5.68;;
22924;SDS011;11628;51.072;3.712;2023-04-03T01:07:08;10.90;;;5.15;;
22924;SDS011;11628;51.072;3.712;2023-04-03T01:09:40;7.95;;;5.35;;
22924;SDS011;11628;51.072;3.712;2023-04-03T01:12:20;7.68;;;5.60;;
22924;SDS011;11628;51.072;3.712;2023-04-03T01:14:49;7.40;;;5.57;;
22924;SDS011;11628;51.072;3.712;2023-04-03T01:25:33;8.98;;;5.97;;
22924;SDS011;11628;51.072;3.712;2023-04-03T01:28:12;7.28;;;5.50;;
22924;SDS011;11628;51.072;3.712;2023-04-03T01:30:43;8.82;;;5.88;;
22924;SDS011;11628;51.072;3.712;2023-04-03T01:33:23;8.55;;;5.90;;
22924;SDS011;11628;51.072;3.712;2023-04-03T01:35:48;6.22;;;5.63;;
22924;SDS011;11628;51.072;3.712;2023-04-03T01:38:14;8.98;;;6.10;;
22924;SDS011;11628;51.072;3.712;2023-04-03T01:40:41;9.90;;;6.30;;
22924;SDS011;11628;51.072;3.712;2023-04-03T01:43:06;8.38;;;5.70;;
22924;SDS011;11628;51.072;3.712;2023-04-03T01:45:32;9.85;;;6.10;;
22924;SDS011;11628;51.072;3.712;2023-04-03T01:47:58;9.98;;;6.28;;
22924;SDS011;11628;51.072;3.712;2023-04-03T01:50:24;7.95;;;6.28;;
22924;SDS011;11628;51.072;3.712;2023-04-03T01:52:50;9.30;;;5.70;;
22924;SDS011;11628;51.072;3.712;2023-04-03T01:55:16;7.40;;;5.68;;
22924;SDS011;11628;51.072;3.712;2023-04-03T01:57:41;9.75;;;6.35;;
22924;SDS011;11628;51.072;3.712;2023-04-03T02:00:07;9.05;;;6.07;;
22924;SDS011;11628;51.072;3.712;2023-04-03T02:02:34;10.02;;;7.00;;
22924;SDS011;11628;51.072;3.712;2023-04-03T02:05:00;9.82;;;6.40;;
22924;SDS011;11628;51.072;3.712;2023-04-03T02:07:25;7.72;;;6.22;;
22924;SDS011;11628;51.072;3.712;2023-04-03T02:09:52;8.60;;;7.03;;
22924;SDS011;11628;51.072;3.712;2023-04-03T02:12:17;9.18;;;6.40;;
22924;SDS011;11628;51.072;3.712;2023-04-03T02:14:43;7.50;;;6.50;;
22924;SDS011;11628;51.072;3.712;2023-04-03T02:17:10;7.07;;;5.93;;
22924;SDS011;11628;51.072;3.712;2023-04-03T02:19:36;9.43;;;6.65;;
22924;SDS011;11628;51.072;3.712;2023-04-03T02:22:02;7.88;;;6.70;;
22924;SDS011;11628;51.072;3.712;2023-04-03T02:24:29;7.35;;;6.28;;
22924;SDS011;11628;51.072;3.712;2023-04-03T02:26:55;8.75;;;7.35;;
22924;SDS011;11628;51.072;3.712;2023-04-03T02:29:20;9.88;;;6.47;;
22924;SDS011;11628;51.072;3.712;2023-04-03T02:31:46;9.85;;;7.10;;
22924;SDS011;11628;51.072;3.712;2023-04-03T02:34:12;7.38;;;6.53;;
22924;SDS011;11628;51.072;3.712;2023-04-03T02:36:37;9.75;;;6.43;;
22924;SDS011;11628;51.072;3.712;2023-04-03T02:39:03;14.18;;;6.78;;
22924;SDS011;11628;51.072;3.712;2023-04-03T02:41:29;8.43;;;6.78;;
22924;SDS011;11628;51.072;3.712;2023-04-03T02:44:00;7.65;;;6.50;;
22924;SDS011;11628;51.072;3.712;2023-04-03T02:46:27;19.88;;;8.80;;
22924;SDS011;11628;51.072;3.712;2023-04-03T02:48:52;8.32;;;6.50;;
22924;SDS011;11628;51.072;3.712;2023-04-03T02:51:18;11.30;;;7.03;;
22924;SDS011;11628;51.072;3.712;2023-04-03T02:53:44;10.52;;;6.88;;
22924;SDS011;11628;51.072;3.712;2023-04-03T02:56:09;9.70;;;6.32;;
22924;SDS011;11628;51.072;3.712;2023-04-03T02:58:35;9.77;;;6.40;;
22924;SDS011;11628;51.072;3.712;2023-04-03T03:01:01;8.15;;;5.82;;
22924;SDS011;11628;51.072;3.712;2023-04-03T03:03:27;8.93;;;6.10;;
22924;SDS011;11628;51.072;3.712;2023-04-03T03:08:28;10.02;;;6.75;;
22924;SDS011;11628;51.072;3.712;2023-04-03T03:10:54;13.18;;;5.93;;
22924;SDS011;11628;51.072;3.712;2023-04-03T03:13:19;10.45;;;7.07;;
22924;SDS011;11628;51.072;3.712;2023-04-03T03:15:45;8.98;;;5.80;;
22924;SDS011;11628;51.072;3.712;2023-04-03T03:18:11;8.82;;;5.75;;
22924;SDS011;11628;51.072;3.712;2023-04-03T03:20:36;8.18;;;5.80;;
22924;SDS011;11628;51.072;3.712;2023-04-03T03:23:02;10.98;;;6.40;;
22924;SDS011;11628;51.072;3.712;2023-04-03T03:25:28;7.15;;;6.07;;
22924;SDS011;11628;51.072;3.712;2023-04-03T03:27:54;6.78;;;5.47;;
22924;SDS011;11628;51.072;3.712;2023-04-03T03:30:20;8.10;;;5.97;;
22924;SDS011;11628;51.072;3.712;2023-04-03T03:32:45;9.80;;;5.95;;
22924;SDS011;11628;51.072;3.712;2023-04-03T03:35:11;7.40;;;5.68;;
22924;SDS011;11628;51.072;3.712;2023-04-03T03:37:37;7.45;;;6.43;;
22924;SDS011;11628;51.072;3.712;2023-04-03T03:40:03;7.15;;;6.05;;
22924;SDS011;11628;51.072;3.712;2023-04-03T03:42:29;9.05;;;6.43;;
22924;SDS011;11628;51.072;3.712;2023-04-03T03:44:55;6.95;;;5.47;;
22924;SDS011;11628;51.072;3.712;2023-04-03T03:47:20;8.90;;;6.05;;
22924;SDS011;11628;51.072;3.712;2023-04-03T03:49:46;8.40;;;6.03;;
22924;SDS011;11628;51.072;3.712;2023-04-03T03:52:12;7.10;;;5.97;;
22924;SDS011;11628;51.072;3.712;2023-04-03T03:54:38;7.05;;;6.32;;
22924;SDS011;11628;51.072;3.712;2023-04-03T03:57:04;8.02;;;6.28;;
22924;SDS011;11628;51.072;3.712;2023-04-03T03:59:30;8.20;;;6.60;;
22924;SDS011;11628;51.072;3.712;2023-04-03T04:01:55;7.65;;;6.40;;
22924;SDS011;11628;51.072;3.712;2023-04-03T04:04:21;9.32;;;6.25;;
22924;SDS011;11628;51.072;3.712;2023-04-03T04:06:47;8.45;;;6.25;;
22924;SDS011;11628;51.072;3.712;2023-04-03T04:09:13;11.30;;;6.90;;
22924;SDS011;11628;51.072;3.712;2023-04-03T04:11:39;9.93;;;6.30;;
22924;SDS011;11628;51.072;3.712;2023-04-03T04:14:05;10.73;;;7.35;;
22924;SDS011;11628;51.072;3.712;2023-04-03T04:16:31;8.75;;;6.90;;
22924;SDS011;11628;51.072;3.712;2023-04-03T04:18:57;10.15;;;6.85;;
22924;SDS011;11628;51.072;3.712;2023-04-03T04:21:23;9.35;;;7.00;;
22924;SDS011;11628;51.072;3.712;2023-04-03T04:23:49;12.00;;;7.10;;
22924;SDS011;11628;51.072;3.712;2023-04-03T04:26:14;9.63;;;6.43;;
22924;SDS011;11628;51.072;3.712;2023-04-03T04:28:40;8.00;;;6.57;;
22924;SDS011;11628;51.072;3.712;2023-04-03T04:31:06;11.57;;;7.28;;
22924;SDS011;11628;51.072;3.712;2023-04-03T04:33:32;12.95;;;7.60;;
22924;SDS011;11628;51.072;3.712;2023-04-03T04:35:57;10.63;;;7.45;;
22924;SDS011;11628;51.072;3.712;2023-04-03T04:38:23;13.50;;;7.85;;
22924;SDS011;11628;51.072;3.712;2023-04-03T04:40:49;9.98;;;8.02;;
22924;SDS011;11628;51.072;3.712;2023-04-03T04:43:16;9.88;;;7.43;;
22924;SDS011;11628;51.072;3.712;2023-04-03T04:45:42;20.80;;;14.75;;
22924;SDS011;11628;51.072;3.712;2023-04-03T04:48:08;14.77;;;8.88;;
22924;SDS011;11628;51.072;3.712;2023-04-03T04:50:34;10.75;;;8.18;;
22924;SDS011;11628;51.072;3.712;2023-04-03T04:53:00;11.43;;;7.28;;
22924;SDS011;11628;51.072;3.712;2023-04-03T04:55:26;15.23;;;8.55;;
22924;SDS011;11628;51.072;3.712;2023-04-03T04:57:51;12.48;;;8.75;;
22924;SDS011;11628;51.072;3.712;2023-04-03T05:00:17;11.98;;;8.80;;
22924;SDS011;11628;51.072;3.712;2023-04-03T05:02:43;16.88;;;11.48;;
22924;SDS011;11628;51.072;3.712;2023-04-03T05:05:09;16.05;;;9.93;;
22924;SDS011;11628;51.072;3.712;2023-04-03T05:07:35;12.13;;;8.63;;
22924;SDS011;11628;51.072;3.712;2023-04-03T05:10:01;14.15;;;8.77;;
22924;SDS011;11628;51.072;3.712;2023-04-03T05:12:27;14.13;;;9.00;;
22924;SDS011;11628;51.072;3.712;2023-04-03T05:14:53;11.13;;;8.75;;
22924;SDS011;11628;51.072;3.712;2023-04-03T05:17:19;12.90;;;9.10;;
22924;SDS011;11628;51.072;3.712;2023-04-03T05:19:45;12.20;;;9.00;;
22924;SDS011;11628;51.072;3.712;2023-04-03T05:22:10;11.82;;;9.55;;
22924;SDS011;11628;51.072;3.712;2023-04-03T05:24:36;10.10;;;9.07;;
22924;SDS011;11628;51.072;3.712;2023-04-03T05:27:02;18.30;;;9.88;;
22924;SDS011;11628;51.072;3.712;2023-04-03T05:29:28;17.20;;;10.77;;
22924;SDS011;11628;51.072;3.712;2023-04-03T05:31:55;13.77;;;9.88;;
22924;SDS011;11628;51.072;3.712;2023-04-03T05:34:20;12.18;;;9.85;;
22924;SDS011;11628;51.072;3.712;2023-04-03T05:36:46;14.77;;;10.10;;
22924;SDS011;11628;51.072;3.712;2023-04-03T05:39:12;17.40;;;9.52;;
22924;SDS011;11628;51.072;3.712;2023-04-03T05:41:38;14.73;;;10.27;;
22924;SDS011;11628;51.072;3.712;2023-04-03T05:44:04;14.55;;;9.75;;
22924;SDS011;11628;51.072;3.712;2023-04-03T05:46:29;15.32;;;11.55;;
22924;SDS011;11628;51.072;3.712;2023-04-03T05:48:55;14.18;;;11.98;;
22924;SDS011;11628;51.072;3.712;2023-04-03T05:51:22;17.60;;;12.82;;
22924;SDS011;11628;51.072;3.712;2023-04-03T05:53:55;17.00;;;11.70;;
22924;SDS011;11628;51.072;3.712;2023-04-03T05:56:25;17.40;;;10.75;;
22924;SDS011;11628;51.072;3.712;2023-04-03T05:58:51;19.75;;;12.52;;
22924;SDS011;11628;51.072;3.712;2023-04-03T06:01:17;14.93;;;12.07;;
22924;SDS011;11628;51.072;3.712;2023-04-03T06:03:43;19.33;;;11.63;;
22924;SDS011;11628;51.072;3.712;2023-04-03T06:06:11;15.23;;;10.48;;
22924;SDS011;11628;51.072;3.712;2023-04-03T06:08:39;20.13;;;10.90;;
22924;SDS011;11628;51.072;3.712;2023-04-03T06:11:05;21.38;;;11.13;;
22924;SDS011;11628;51.072;3.712;2023-04-03T06:13:30;16.60;;;11.32;;
22924;SDS011;11628;51.072;3.712;2023-04-03T06:15:56;21.88;;;11.32;;
22924;SDS011;11628;51.072;3.712;2023-04-03T06:18:23;16.27;;;10.32;;
22924;SDS011;11628;51.072;3.712;2023-04-03T06:20:49;16.90;;;10.85;;
22924;SDS011;11628;51.072;3.712;2023-04-03T06:23:15;13.80;;;9.68;;
22924;SDS011;11628;51.072;3.712;2023-04-03T06:25:41;12.15;;;9.35;;
22924;SDS011;11628;51.072;3.712;2023-04-03T06:28:08;15.93;;;9.68;;
22924;SDS011;11628;51.072;3.712;2023-04-03T06:30:35;14.20;;;9.65;;
22924;SDS011;11628;51.072;3.712;2023-04-03T06:33:01;14.15;;;10.00;;
22924;SDS011;11628;51.072;3.712;2023-04-03T06:35:27;11.45;;;9.40;;
22924;SDS011;11628;51.072;3.712;2023-04-03T06:37:55;14.43;;;9.52;;
22924;SDS011;11628;51.072;3.712;2023-04-03T06:40:22;15.95;;;9.45;;
22924;SDS011;11628;51.072;3.712;2023-04-03T06:42:50;13.73;;;9.63;;
22924;SDS011;11628;51.072;3.712;2023-04-03T06:45:16;14.77;;;9.05;;
22924;SDS011;11628;51.072;3.712;2023-04-03T06:47:42;17.73;;;9.18;;
22924;SDS011;11628;51.072;3.712;2023-04-03T06:50:09;12.27;;;8.80;;
22924;SDS011;11628;51.072;3.712;2023-04-03T06:52:36;15.45;;;9.15;;
22924;SDS011;11628;51.072;3.712;2023-04-03T06:55:02;14.70;;;8.60;;
22924;SDS011;11628;51.072;3.712;2023-04-03T06:57:28;12.75;;;8.00;;
22924;SDS011;11628;51.072;3.712;2023-04-03T06:59:55;14.18;;;8.80;;
22924;SDS011;11628;51.072;3.712;2023-04-03T07:02:20;13.02;;;8.40;;
22924;SDS011;11628;51.072;3.712;2023-04-03T07:04:46;15.30;;;8.80;;
22924;SDS011;11628;51.072;3.712;2023-04-03T07:07:12;13.43;;;8.60;;
22924;SDS011;11628;51.072;3.712;2023-04-03T07:09:38;9.90;;;8.90;;
22924;SDS011;11628;51.072;3.712;2023-04-03T07:12:03;14.73;;;8.80;;
22924;SDS011;11628;51.072;3.712;2023-04-03T07:14:29;14.45;;;9.30;;
22924;SDS011;11628;51.072;3.712;2023-04-03T07:16:55;12.98;;;8.02;;
22924;SDS011;11628;51.072;3.712;2023-04-03T07:19:21;11.63;;;7.82;;
22924;SDS011;11628;51.072;3.712;2023-04-03T07:21:47;9.80;;;7.80;;
22924;SDS011;11628;51.072;3.712;2023-04-03T07:24:13;10.70;;;7.60;;
22924;SDS011;11628;51.072;3.712;2023-04-03T07:26:38;11.75;;;7.78;;
22924;SDS011;11628;51.072;3.712;2023-04-03T07:29:04;17.48;;;8.35;;
22924;SDS011;11628;51.072;3.712;2023-04-03T07:31:30;11.50;;;8.18;;
22924;SDS011;11628;51.072;3.712;2023-04-03T07:33:56;10.38;;;7.72;;
22924;SDS011;11628;51.072;3.712;2023-04-03T07:36:22;11.43;;;7.72;;
22924;SDS011;11628;51.072;3.712;2023-04-03T07:38:48;13.65;;;7.65;;
22924;SDS011;11628;51.072;3.712;2023-04-03T07:41:15;10.02;;;7.55;;
22924;SDS011;11628;51.072;3.712;2023-04-03T07:43:42;11.85;;;7.97;;
22924;SDS011;11628;51.072;3.712;2023-04-03T07:46:08;9.25;;;7.53;;
22924;SDS011;11628;51.072;3.712;2023-04-03T07:48:34;10.45;;;7.88;;
22924;SDS011;11628;51.072;3.712;2023-04-03T07:51:00;8.88;;;7.63;;
22924;SDS011;11628;51.072;3.712;2023-04-03T07:53:28;9.75;;;7.60;;
22924;SDS011;11628;51.072;3.712;2023-04-03T07:55:56;10.25;;;8.07;;
22924;SDS011;11628;51.072;3.712;2023-04-03T07:58:22;13.30;;;8.20;;
22924;SDS011;11628;51.072;3.712;2023-04-03T08:00:48;10.85;;;7.63;;
22924;SDS011;11628;51.072;3.712;2023-04-03T08:03:14;9.98;;;7.40;;
22924;SDS011;11628;51.072;3.712;2023-04-03T08:05:44;9.45;;;8.38;;
22924;SDS011;11628;51.072;3.712;2023-04-03T08:08:12;11.07;;;7.82;;
22924;SDS011;11628;51.072;3.712;2023-04-03T08:10:39;10.05;;;7.78;;
22924;SDS011;11628;51.072;3.712;2023-04-03T08:13:05;9.10;;;7.90;;
22924;SDS011;11628;51.072;3.712;2023-04-03T08:15:31;9.13;;;8.18;;
22924;SDS011;11628;51.072;3.712;2023-04-03T08:17:58;9.77;;;7.93;;
22924;SDS011;11628;51.072;3.712;2023-04-03T08:20:25;8.80;;;6.63;;
22924;SDS011;11628;51.072;3.712;2023-04-03T08:22:52;9.15;;;7.00;;
22924;SDS011;11628;51.072;3.712;2023-04-03T08:25:18;11.40;;;6.53;;
22924;SDS011;11628;51.072;3.712;2023-04-03T08:27:44;7.60;;;6.68;;
22924;SDS011;11628;51.072;3.712;2023-04-03T08:30:10;8.07;;;6.18;;
22924;SDS011;11628;51.072;3.712;2023-04-03T08:32:36;10.38;;;5.93;;
22924;SDS011;11628;51.072;3.712;2023-04-03T08:35:02;8.63;;;6.55;;
22924;SDS011;11628;51.072;3.712;2023-04-03T08:37:28;9.75;;;5.70;;
22924;SDS011;11628;51.072;3.712;2023-04-03T08:39:55;8.55;;;5.18;;
22924;SDS011;11628;51.072;3.712;2023-04-03T08:45:15;7.88;;;5.32;;
22924;SDS011;11628;51.072;3.712;2023-04-03T08:50:41;7.20;;;5.20;;
22924;SDS011;11628;51.072;3.712;2023-04-03T08:53:17;8.80;;;6.38;;
22924;SDS011;11628;51.072;3.712;2023-04-03T08:55:46;8.55;;;5.47;;
22924;SDS011;11628;51.072;3.712;2023-04-03T08:58:15;7.82;;;5.03;;
22924;SDS011;11628;51.072;3.712;2023-04-03T09:00:50;14.68;;;7.00;;
22924;SDS011;11628;51.072;3.712;2023-04-03T09:03:19;10.32;;;5.70;;
22924;SDS011;11628;51.072;3.712;2023-04-03T09:08:22;10.25;;;4.97;;
22924;SDS011;11628;51.072;3.712;2023-04-03T09:19:15;4.93;;;3.20;;
22924;SDS011;11628;51.072;3.712;2023-04-03T09:21:49;5.43;;;3.45;;
22924;SDS011;11628;51.072;3.712;2023-04-03T09:24:16;7.53;;;4.05;;
22924;SDS011;11628;51.072;3.712;2023-04-03T09:26:51;9.20;;;5.13;;
22924;SDS011;11628;51.072;3.712;2023-04-03T09:29:25;6.88;;;3.65;;
22924;SDS011;11628;51.072;3.712;2023-04-03T09:32:00;5.95;;;3.10;;
22924;SDS011;11628;51.072;3.712;2023-04-03T09:34:37;4.95;;;2.20;;
22924;SDS011;11628;51.072;3.712;2023-04-03T09:37:07;4.88;;;1.92;;
22924;SDS011;11628;51.072;3.712;2023-04-03T09:39:54;4.75;;;2.03;;
22924;SDS011;11628;51.072;3.712;2023-04-03T09:42:22;4.05;;;2.00;;
22924;SDS011;11628;51.072;3.712;2023-04-03T09:44:58;5.50;;;2.83;;
22924;SDS011;11628;51.072;3.712;2023-04-03T09:47:27;5.60;;;2.03;;
22924;SDS011;11628;51.072;3.712;2023-04-03T09:52:44;5.05;;;2.47;;
22924;SDS011;11628;51.072;3.712;2023-04-03T09:55:15;9.82;;;3.20;;
22924;SDS011;11628;51.072;3.712;2023-04-03T09:57:42;8.00;;;3.25;;
22924;SDS011;11628;51.072;3.712;2023-04-03T10:03:01;9.68;;;3.20;;
22924;SDS011;11628;51.072;3.712;2023-04-03T10:05:36;4.45;;;2.03;;
22924;SDS011;11628;51.072;3.712;2023-04-03T10:10:38;4.43;;;2.40;;
22924;SDS011;11628;51.072;3.712;2023-04-03T10:15:42;6.38;;;2.78;;
22924;SDS011;11628;51.072;3.712;2023-04-03T10:24:14;4.85;;;2.55;;
22924;SDS011;11628;51.072;3.712;2023-04-03T10:27:06;4.22;;;2.20;;
22924;SDS011;11628;51.072;3.712;2023-04-03T10:29:58;6.40;;;2.58;;
22924;SDS011;11628;51.072;3.712;2023-04-03T10:32:46;4.97;;;2.22;;
22924;SDS011;11628;51.072;3.712;2023-04-03T10:38:13;5.82;;;2.30;;
22924;SDS011;11628;51.072;3.712;2023-04-03T10:46:21;7.28;;;2.05;;
22924;SDS011;11628;51.072;3.712;2023-04-03T10:51:48;4.32;;;1.73;;
22924;SDS011;11628;51.072;3.712;2023-04-03T10:57:29;4.93;;;1.98;;
22924;SDS011;11628;51.072;3.712;2023-04-03T11:00:04;6.20;;;2.05;;
22924;SDS011;11628;51.072;3.712;2023-04-03T11:05:13;5.13;;;1.80;;
22924;SDS011;11628;51.072;3.712;2023-04-03T11:07:45;2.85;;;1.40;;
22924;SDS011;11628;51.072;3.712;2023-04-03T11:10:24;5.25;;;1.30;;
22924;SDS011;11628;51.072;3.712;2023-04-03T11:13:13;2.67;;;1.60;;
22924;SDS011;11628;51.072;3.712;2023-04-03T11:15:42;5.45;;;1.60;;
22924;SDS011;11628;51.072;3.712;2023-04-03T11:18:57;4.32;;;1.73;;
22924;SDS011;11628;51.072;3.712;2023-04-03T11:21:04;5.22;;;1.60;;
22924;SDS011;11628;51.072;3.712;2023-04-03T11:23:39;7.90;;;2.50;;
22924;SDS011;11628;51.072;3.712;2023-04-03T11:26:10;3.53;;;1.50;;
22924;SDS011;11628;51.072;3.712;2023-04-03T11:28:38;2.85;;;1.40;;
22924;SDS011;11628;51.072;3.712;2023-04-03T11:41:45;4.25;;;1.27;;
22924;SDS011;11628;51.072;3.712;2023-04-03T11:44:29;5.90;;;1.52;;
22924;SDS011;11628;51.072;3.712;2023-04-03T11:46:58;3.08;;;1.35;;
22924;SDS011;11628;51.072;3.712;2023-04-03T12:19:00;3.53;;;1.58;;
22924;SDS011;11628;51.072;3.712;2023-04-03T12:40:37;2.90;;;1.45;;
22924;SDS011;11628;51.072;3.712;2023-04-03T12:51:13;3.67;;;1.48;;
22924;SDS011;11628;51.072;3.712;2023-04-03T12:53:43;3.38;;;1.40;;
22924;SDS011;11628;51.072;3.712;2023-04-03T12:58:50;4.55;;;1.70;;
22924;SDS011;11628;51.072;3.712;2023-04-03T13:01:18;5.82;;;1.40;;
22924;SDS011;11628;51.072;3.712;2023-04-03T13:03:48;4.90;;;1.50;;
22924;SDS011;11628;51.072;3.712;2023-04-03T13:06:21;2.80;;;1.23;;
22924;SDS011;11628;51.072;3.712;2023-04-03T13:08:57;5.00;;;1.27;;
22924;SDS011;11628;51.072;3.712;2023-04-03T13:11:27;3.97;;;1.25;;
22924;SDS011;11628;51.072;3.712;2023-04-03T13:14:04;2.22;;;1.27;;
22924;SDS011;11628;51.072;3.712;2023-04-03T13:16:39;3.38;;;1.15;;
22924;SDS011;11628;51.072;3.712;2023-04-03T13:19:06;4.53;;;1.10;;
22924;SDS011;11628;51.072;3.712;2023-04-03T13:21:40;4.35;;;1.35;;
22924;SDS011;11628;51.072;3.712;2023-04-03T13:24:06;3.88;;;1.63;;
22924;SDS011;11628;51.072;3.712;2023-04-03T13:26:33;2.97;;;1.10;;
22924;SDS011;11628;51.072;3.712;2023-04-03T13:29:03;2.22;;;1.20;;
22924;SDS011;11628;51.072;3.712;2023-04-03T13:31:33;5.90;;;1.40;;
22924;SDS011;11628;51.072;3.712;2023-04-03T13:36:31;3.08;;;1.30;;
22924;SDS011;11628;51.072;3.712;2023-04-03T13:41:30;1.42;;;1.00;;
22924;SDS011;11628;51.072;3.712;2023-04-03T13:46:52;2.92;;;1.08;;
22924;SDS011;11628;51.072;3.712;2023-04-03T13:49:30;8.43;;;3.70;;
22924;SDS011;11628;51.072;3.712;2023-04-03T13:52:03;2.58;;;1.00;;
22924;SDS011;11628;51.072;3.712;2023-04-03T13:54:51;3.47;;;1.20;;
22924;SDS011;11628;51.072;3.712;2023-04-03T13:57:20;2.30;;;0.90;;
22924;SDS011;11628;51.072;3.712;2023-04-03T13:59:46;2.38;;;1.08;;
22924;SDS011;11628;51.072;3.712;2023-04-03T14:04:48;1.95;;;1.15;;
22924;SDS011;11628;51.072;3.712;2023-04-03T14:07:23;8.25;;;1.25;;
22924;SDS011;11628;51.072;3.712;2023-04-03T14:09:49;13.50;;;9.15;;
22924;SDS011;11628;51.072;3.712;2023-04-03T14:12:25;2.38;;;1.13;;
22924;SDS011;11628;51.072;3.712;2023-04-03T14:14:52;1.60;;;0.88;;
22924;SDS011;11628;51.072;3.712;2023-04-03T14:17:21;1.83;;;0.82;;
22924;SDS011;11628;51.072;3.712;2023-04-03T14:19:49;2.95;;;1.10;;
22924;SDS011;11628;51.072;3.712;2023-04-03T14:22:21;2.30;;;0.93;;
22924;SDS011;11628;51.072;3.712;2023-04-03T14:24:49;1.67;;;0.98;;
22924;SDS011;11628;51.072;3.712;2023-04-03T14:27:19;3.05;;;1.02;;
22924;SDS011;11628;51.072;3.712;2023-04-03T14:29:58;4.90;;;1.45;;
22924;SDS011;11628;51.072;3.712;2023-04-03T14:32:25;2.92;;;1.35;;
22924;SDS011;11628;51.072;3.712;2023-04-03T14:34:52;2.33;;;1.00;;
22924;SDS011;11628;51.072;3.712;2023-04-03T14:37:19;4.45;;;1.00;;
22924;SDS011;11628;51.072;3.712;2023-04-03T14:39:48;3.08;;;0.88;;
22924;SDS011;11628;51.072;3.712;2023-04-03T14:42:19;3.25;;;1.30;;
22924;SDS011;11628;51.072;3.712;2023-04-03T14:44:47;2.85;;;0.93;;
22924;SDS011;11628;51.072;3.712;2023-04-03T14:47:24;2.53;;;1.30;;
22924;SDS011;11628;51.072;3.712;2023-04-03T14:49:52;5.90;;;2.88;;
22924;SDS011;11628;51.072;3.712;2023-04-03T14:52:20;3.30;;;0.98;;
22924;SDS011;11628;51.072;3.712;2023-04-03T14:54:48;2.70;;;1.00;;
22924;SDS011;11628;51.072;3.712;2023-04-03T14:57:15;2.17;;;1.00;;
22924;SDS011;11628;51.072;3.712;2023-04-03T14:59:42;3.15;;;1.00;;
22924;SDS011;11628;51.072;3.712;2023-04-03T15:02:22;2.03;;;1.17;;
22924;SDS011;11628;51.072;3.712;2023-04-03T15:04:57;4.40;;;2.88;;
22924;SDS011;11628;51.072;3.712;2023-04-03T15:07:24;3.38;;;1.27;;
22924;SDS011;11628;51.072;3.712;2023-04-03T15:09:52;2.50;;;1.20;;
22924;SDS011;11628;51.072;3.712;2023-04-03T15:12:21;5.47;;;1.10;;
22924;SDS011;11628;51.072;3.712;2023-04-03T15:14:47;3.65;;;1.00;;
22924;SDS011;11628;51.072;3.712;2023-04-03T15:17:14;1.52;;;1.15;;
22924;SDS011;11628;51.072;3.712;2023-04-03T15:19:42;4.20;;;1.00;;
22924;SDS011;11628;51.072;3.712;2023-04-03T15:22:15;2.33;;;0.95;;
22924;SDS011;11628;51.072;3.712;2023-04-03T15:24:43;4.35;;;1.30;;
22924;SDS011;11628;51.072;3.712;2023-04-03T15:27:10;4.43;;;1.73;;
22924;SDS011;11628;51.072;3.712;2023-04-03T15:29:37;1.60;;;1.10;;
22924;SDS011;11628;51.072;3.712;2023-04-03T15:32:03;3.25;;;1.05;;
22924;SDS011;11628;51.072;3.712;2023-04-03T15:34:29;2.50;;;1.23;;
22924;SDS011;11628;51.072;3.712;2023-04-03T15:36:56;1.98;;;1.10;;
22924;SDS011;11628;51.072;3.712;2023-04-03T15:39:22;2.72;;;1.10;;
22924;SDS011;11628;51.072;3.712;2023-04-03T15:41:49;2.47;;;1.10;;
22924;SDS011;11628;51.072;3.712;2023-04-03T15:44:17;1.83;;;1.20;;
22924;SDS011;11628;51.072;3.712;2023-04-03T15:46:43;2.75;;;1.27;;
22924;SDS011;11628;51.072;3.712;2023-04-03T15:49:10;2.90;;;1.40;;
22924;SDS011;11628;51.072;3.712;2023-04-03T15:51:37;3.35;;;1.20;;
22924;SDS011;11628;51.072;3.712;2023-04-03T15:54:03;3.72;;;1.10;;
22924;SDS011;11628;51.072;3.712;2023-04-03T15:56:28;2.90;;;1.10;;
22924;SDS011;11628;51.072;3.712;2023-04-03T15:58:54;3.42;;;1.08;;
22924;SDS011;11628;51.072;3.712;2023-04-03T16:01:20;3.10;;;1.23;;
22924;SDS011;11628;51.072;3.712;2023-04-03T16:03:46;2.28;;;1.00;;
22924;SDS011;11628;51.072;3.712;2023-04-03T16:06:15;2.83;;;1.00;;
22924;SDS011;11628;51.072;3.712;2023-04-03T16:08:43;2.35;;;1.02;;
22924;SDS011;11628;51.072;3.712;2023-04-03T16:11:10;6.63;;;1.15;;
22924;SDS011;11628;51.072;3.712;2023-04-03T16:13:37;3.72;;;1.33;;
22924;SDS011;11628;51.072;3.712;2023-04-03T16:16:02;4.95;;;1.70;;
22924;SDS011;11628;51.072;3.712;2023-04-03T16:18:30;2.80;;;0.75;;
22924;SDS011;11628;51.072;3.712;2023-04-03T16:20:56;2.10;;;1.00;;
22924;SDS011;11628;51.072;3.712;2023-04-03T16:23:23;3.35;;;1.17;;
22924;SDS011;11628;51.072;3.712;2023-04-03T16:25:49;2.47;;;0.90;;
22924;SDS011;11628;51.072;3.712;2023-04-03T16:28:15;2.75;;;1.77;;
22924;SDS011;11628;51.072;3.712;2023-04-03T16:30:43;6.85;;;3.05;;
22924;SDS011;11628;51.072;3.712;2023-04-03T16:33:10;2.55;;;0.95;;
22924;SDS011;11628;51.072;3.712;2023-04-03T16:35:37;2.35;;;1.25;;
22924;SDS011;11628;51.072;3.712;2023-04-03T16:38:03;3.20;;;1.00;;
22924;SDS011;11628;51.072;3.712;2023-04-03T16:40:29;4.10;;;0.90;;
22924;SDS011;11628;51.072;3.712;2023-04-03T16:42:55;2.47;;;0.98;;
22924;SDS011;11628;51.072;3.712;2023-04-03T16:45:20;3.33;;;1.00;;
22924;SDS011;11628;51.072;3.712;2023-04-03T16:47:46;3.70;;;1.42;;
22924;SDS011;11628;51.072;3.712;2023-04-03T16:50:12;2.25;;;1.25;;
22924;SDS011;11628;51.072;3.712;2023-04-03T16:52:38;5.88;;;1.02;;
22924;SDS011;11628;51.072;3.712;2023-04-03T16:55:04;3.88;;;1.00;;
22924;SDS011;11628;51.072;3.712;2023-04-03T16:57:30;4.43;;;1.33;;
22924;SDS011;11628;51.072;3.712;2023-04-03T16:59:56;3.22;;;1.08;;
22924;SDS011;11628;51.072;3.712;2023-04-03T17:02:23;3.35;;;1.10;;
22924;SDS011;11628;51.072;3.712;2023-04-03T17:04:52;2.47;;;1.10;;
22924;SDS011;11628;51.072;3.712;2023-04-03T17:07:19;3.17;;;1.50;;
22924;SDS011;11628;51.072;3.712;2023-04-03T17:09:45;3.40;;;1.00;;
22924;SDS011;11628;51.072;3.712;2023-04-03T17:12:12;2.08;;;1.17;;